createdAt,value
2023-03-10T00:00:46.638Z,74.41
2023-03-10T00:05:49.105Z,72.66
2023-03-10T00:10:51.192Z,75.47
2023-03-10T00:15:53.277Z,77.02
2023-03-10T00:20:55.955Z,76.86
2023-03-10T00:26:01.230Z,81.12
2023-03-10T00:31:06.932Z,76.81
2023-03-10T00:36:14.039Z,79.50
2023-03-10T00:41:20.472Z,77.38
2023-03-10T00:46:28.206Z,74.46
2023-03-10T00:51:30.362Z,76.60
2023-03-10T00:56:32.411Z,74.85
2023-03-10T01:01:39.704Z,78.25
2023-03-10T01:06:44.553Z,78.26
2023-03-10T01:11:46.743Z,80.47
2023-03-10T01:16:49.366Z,81.62
2023-03-10T01:21:51.898Z,82.12
2023-03-10T01:26:54.321Z,83.51
2023-03-10T01:31:56.895Z,84.27
2023-03-10T01:36:59.918Z,84.03
2023-03-10T01:42:02.494Z,83.52
2023-03-10T01:47:05.114Z,82.05
2023-03-10T01:52:12.646Z,81.33
2023-03-10T01:57:16.908Z,81.91
2023-03-10T02:02:20.135Z,82.36
2023-03-10T02:07:29.057Z,83.18
2023-03-10T02:12:31.681Z,83.24
2023-03-10T02:17:35.522Z,85.65
2023-03-10T02:22:40.130Z,86.31
2023-03-10T02:27:44.821Z,88.39
2023-03-10T02:32:53.115Z,90.71
2023-03-10T02:37:58.023Z,93.90
2023-03-10T02:43:11.580Z,96.19
2023-03-10T02:48:28.366Z,96.64
2023-03-10T02:53:31.429Z,100.00
2023-03-10T02:58:34.367Z,100.00
2023-03-10T03:03:38.522Z,100.00
2023-03-10T03:08:42.177Z,100.00
2023-03-10T03:13:48.283Z,100.00
2023-03-10T03:18:50.942Z,100.00
2023-03-10T03:23:56.035Z,100.00
2023-03-10T03:28:59.212Z,100.00
2023-03-10T03:34:06.927Z,100.00
2023-03-10T03:39:09.633Z,100.00
2023-03-10T03:44:14.778Z,100.00
2023-03-10T03:49:17.269Z,100.00
2023-03-10T03:54:31.013Z,100.00
2023-03-10T03:59:36.713Z,100.00
2023-03-10T04:04:39.253Z,100.00
2023-03-10T04:09:43.053Z,100.00
2023-03-10T04:14:45.986Z,100.00
2023-03-10T04:20:00.636Z,100.00
2023-03-10T04:25:10.040Z,100.00
2023-03-10T04:30:14.581Z,100.00
2023-03-10T04:35:20.835Z,100.00
2023-03-10T04:40:23.805Z,100.00
2023-03-10T04:45:27.780Z,100.00
2023-03-10T04:50:30.502Z,100.00
2023-03-10T04:55:33.483Z,100.00
2023-03-10T05:00:47.433Z,100.00
2023-03-10T05:05:56.623Z,100.00
2023-03-10T05:10:59.370Z,100.00
2023-03-10T05:16:02.086Z,100.00
2023-03-10T05:21:05.436Z,100.00
2023-03-10T05:26:12.190Z,100.00
2023-03-10T05:31:16.743Z,100.00
2023-03-10T05:36:22.609Z,100.00
2023-03-10T05:41:26.135Z,100.00
2023-03-10T05:46:32.156Z,100.00
2023-03-10T05:51:35.377Z,100.00
2023-03-10T05:56:39.264Z,100.00
2023-03-10T06:01:42.643Z,100.00
2023-03-10T06:06:45.148Z,100.00
2023-03-10T06:11:47.633Z,100.00
2023-03-10T06:16:53.045Z,100.00
2023-03-10T06:21:55.553Z,100.00
2023-03-10T06:26:58.058Z,100.00
2023-03-10T06:32:00.692Z,100.00
2023-03-10T06:37:03.235Z,100.00
2023-03-10T06:42:06.731Z,100.00
2023-03-10T06:47:09.196Z,100.00
2023-03-10T06:52:11.737Z,100.00
2023-03-10T06:57:14.421Z,100.00
2023-03-10T07:02:16.900Z,100.00
2023-03-10T07:07:19.330Z,100.00
2023-03-10T07:12:22.434Z,100.00
2023-03-10T07:17:25.374Z,100.00
2023-03-10T07:22:27.780Z,100.00
2023-03-10T07:27:30.513Z,100.00
2023-03-10T07:32:33.191Z,100.00
2023-03-10T07:37:39.205Z,100.00
2023-03-10T07:42:43.748Z,100.00
2023-03-10T07:47:46.699Z,100.00
2023-03-10T07:52:49.252Z,100.00
2023-03-10T07:57:51.753Z,100.00
2023-03-10T08:02:54.354Z,100.00
2023-03-10T08:07:57.290Z,100.00
2023-03-10T08:12:59.823Z,100.00
2023-03-10T08:18:05.285Z,100.00
2023-03-10T08:23:07.791Z,100.00
2023-03-10T08:28:10.336Z,100.00
2023-03-10T08:33:13.325Z,100.00
2023-03-10T08:38:18.775Z,100.00
2023-03-10T08:43:21.375Z,100.00
2023-03-10T08:48:23.922Z,100.00
2023-03-10T08:53:26.366Z,100.00
2023-03-10T08:58:28.521Z,100.00
2023-03-10T09:03:31.890Z,88.68
2023-03-10T09:08:35.293Z,73.41
2023-03-10T09:13:38.369Z,74.42
2023-03-10T09:18:40.788Z,69.80
2023-03-10T09:23:46.474Z,81.51
2023-03-10T09:28:51.161Z,92.81
2023-03-10T09:33:53.354Z,87.70
2023-03-10T09:38:57.581Z,89.51
2023-03-10T09:44:26.536Z,92.38
2023-03-10T09:49:38.755Z,94.60
2023-03-10T09:55:06.456Z,95.49
2023-03-10T10:00:21.954Z,95.30
2023-03-10T10:05:33.682Z,97.25
2023-03-10T10:10:39.433Z,94.02
2023-03-10T10:15:50.025Z,99.82
2023-03-10T10:21:05.801Z,100.00
2023-03-10T10:26:24.068Z,100.00
2023-03-10T10:31:34.964Z,100.00
2023-03-10T10:36:51.970Z,100.00
2023-03-10T10:41:54.565Z,100.00
2023-03-10T10:46:57.767Z,100.00
2023-03-10T10:52:19.205Z,100.00
2023-03-10T10:57:27.255Z,100.00
2023-03-10T11:02:34.283Z,100.00
2023-03-10T11:07:36.525Z,100.00
2023-03-10T11:12:57.022Z,100.00
2023-03-10T11:18:27.792Z,97.36
2023-03-10T11:23:42.459Z,92.32
2023-03-10T11:29:32.202Z,97.74
2023-03-10T11:34:49.289Z,97.75
2023-03-10T11:40:30.874Z,96.42
2023-03-10T11:45:53.660Z,97.67
2023-03-10T11:51:02.649Z,99.05
2023-03-10T11:56:09.507Z,100.00
2023-03-10T12:01:23.230Z,100.00
2023-03-10T12:06:37.154Z,100.00
2023-03-10T12:11:39.774Z,100.00
2023-03-10T12:16:43.693Z,93.43
2023-03-10T12:21:47.773Z,92.41
2023-03-10T12:27:03.867Z,92.50
2023-03-10T12:32:39.818Z,90.69
2023-03-10T12:37:42.045Z,93.76
2023-03-10T12:42:45.781Z,95.90
2023-03-10T12:48:13.722Z,92.05
2023-03-10T12:53:34.076Z,95.81
2023-03-10T12:58:40.341Z,92.87
2023-03-10T13:03:52.526Z,95.84
2023-03-10T13:09:26.379Z,100.00
2023-03-10T13:14:39.886Z,100.00
2023-03-10T13:19:42.233Z,98.00
2023-03-10T13:24:44.621Z,95.51
2023-03-10T13:30:10.526Z,97.24
2023-03-10T13:35:29.746Z,100.00
2023-03-10T13:40:31.902Z,100.00
2023-03-10T13:45:34.537Z,100.00
2023-03-10T13:50:36.743Z,98.84
2023-03-10T13:55:40.733Z,100.00
2023-03-10T14:00:47.450Z,100.00
2023-03-10T14:05:50.058Z,100.00
2023-03-10T14:10:52.518Z,100.00
2023-03-10T14:15:55.887Z,100.00
2023-03-10T14:20:58.134Z,100.00
2023-03-10T14:26:00.296Z,100.00
2023-03-10T14:31:04.724Z,100.00
2023-03-10T14:36:12.153Z,100.00
2023-03-10T14:41:15.224Z,100.00
2023-03-10T14:46:18.275Z,100.00
2023-03-10T14:51:34.637Z,100.00
2023-03-10T14:56:37.978Z,100.00
2023-03-10T15:01:40.979Z,100.00
2023-03-10T15:06:44.716Z,100.00
2023-03-10T15:11:47.373Z,100.00
2023-03-10T15:16:50.029Z,100.00
2023-03-10T15:21:52.655Z,100.00
2023-03-10T15:26:55.090Z,100.00
2023-03-10T15:31:58.351Z,100.00
2023-03-10T15:37:01.180Z,100.00
2023-03-10T15:42:03.884Z,100.00
2023-03-10T15:47:06.636Z,100.00
2023-03-10T15:52:09.169Z,99.58
2023-03-10T15:57:11.683Z,97.59
2023-03-10T16:02:15.393Z,91.75
2023-03-10T16:07:17.952Z,90.38
2023-03-10T16:12:22.425Z,84.90
2023-03-10T16:17:25.072Z,81.98
2023-03-10T16:22:27.891Z,81.87
2023-03-10T16:27:30.288Z,80.52
2023-03-10T16:32:33.832Z,82.30
2023-03-10T16:37:36.323Z,89.55
2023-03-10T16:42:39.039Z,97.14
2023-03-10T16:47:44.080Z,96.51
2023-03-10T16:52:47.040Z,100.00
2023-03-10T16:57:50.003Z,98.66
2023-03-10T17:02:52.515Z,94.57
2023-03-10T17:08:02.333Z,91.80
2023-03-10T17:13:04.740Z,91.61
2023-03-10T17:18:07.531Z,89.29
2023-03-10T17:23:09.951Z,89.08
2023-03-10T17:28:12.809Z,83.38
2023-03-10T17:33:15.421Z,84.77
2023-03-10T17:38:18.038Z,83.40
2023-03-10T17:43:33.285Z,82.85
2023-03-10T17:48:36.850Z,83.07
2023-03-10T17:53:39.300Z,84.26
2023-03-10T17:58:43.432Z,84.70
2023-03-10T18:03:48.320Z,81.56
2023-03-10T18:08:52.463Z,82.04
2023-03-10T18:13:55.811Z,81.13
2023-03-10T18:18:59.319Z,81.12
2023-03-10T18:24:01.731Z,82.37
2023-03-10T18:29:04.692Z,82.27
2023-03-10T18:34:07.266Z,84.08
2023-03-10T18:39:11.358Z,84.06
2023-03-10T18:44:14.226Z,88.75
2023-03-10T18:49:16.641Z,99.88
2023-03-10T18:54:19.008Z,100.00
2023-03-10T18:59:21.110Z,100.00
2023-03-10T19:04:23.111Z,100.00
2023-03-10T19:09:25.137Z,100.00
2023-03-10T19:14:27.250Z,99.28
2023-03-10T19:19:29.380Z,94.96
2023-03-10T19:24:31.395Z,95.95
2023-03-10T19:29:33.508Z,94.36
2023-03-10T19:34:36.041Z,95.21
2023-03-10T19:39:38.069Z,93.01
2023-03-10T19:44:40.485Z,86.14
2023-03-10T19:49:42.978Z,85.65
2023-03-10T19:54:45.248Z,90.11
2023-03-10T19:59:47.357Z,91.98
2023-03-10T20:04:50.702Z,93.78
2023-03-10T20:09:52.716Z,100.00
2023-03-10T20:14:58.713Z,97.40
2023-03-10T20:20:00.815Z,97.56
2023-03-10T20:25:03.079Z,93.11
2023-03-10T20:30:16.082Z,89.61
2023-03-10T20:35:19.035Z,88.72
2023-03-10T20:40:24.220Z,87.31
2023-03-10T20:45:27.681Z,85.90
2023-03-10T20:50:29.905Z,89.58
2023-03-10T20:55:32.259Z,97.13
2023-03-10T21:00:34.542Z,97.36
2023-03-10T21:05:36.753Z,93.05
2023-03-10T21:10:38.933Z,95.29
2023-03-10T21:15:41.407Z,93.73
2023-03-10T21:20:43.883Z,94.84
2023-03-10T21:25:46.485Z,90.35
2023-03-10T21:30:48.613Z,86.99
2023-03-10T21:35:50.760Z,87.79
2023-03-10T21:40:52.858Z,85.23
2023-03-10T21:45:54.882Z,81.79
2023-03-10T21:50:56.894Z,81.56
2023-03-10T21:56:00.669Z,79.59
2023-03-10T22:01:07.679Z,80.40
2023-03-10T22:06:10.328Z,79.62
2023-03-10T22:11:13.217Z,82.63
2023-03-10T22:16:18.076Z,80.05
2023-03-10T22:21:20.254Z,80.09
2023-03-10T22:26:22.520Z,78.60
2023-03-10T22:31:24.822Z,82.44
2023-03-10T22:36:26.975Z,77.07
2023-03-10T22:41:29.153Z,77.21
2023-03-10T22:46:32.514Z,77.04
2023-03-10T22:51:34.632Z,76.93
2023-03-10T22:56:36.651Z,77.78
2023-03-10T23:01:39.405Z,74.41
2023-03-10T23:06:41.459Z,75.71
2023-03-10T23:11:43.827Z,75.02
2023-03-10T23:16:46.043Z,74.93
2023-03-10T23:21:48.191Z,75.21
2023-03-10T23:26:50.422Z,75.33
2023-03-10T23:31:52.852Z,75.12
2023-03-10T23:36:57.413Z,74.46
2023-03-10T23:41:59.438Z,75.12
2023-03-10T23:47:01.492Z,76.18
2023-03-10T23:52:03.762Z,74.32
2023-03-10T23:57:05.871Z,73.75
